createdAt,value
2018-04-08T00:04:13.985Z,4.91
2018-04-08T00:06:43.031Z,4.93
2018-04-08T00:09:12.277Z,4.88
2018-04-08T00:11:41.311Z,4.96
2018-04-08T00:14:10.362Z,4.78
2018-04-08T00:16:39.971Z,4.64
2018-04-08T00:19:09.016Z,4.54
2018-04-08T00:21:39.327Z,4.45
2018-04-08T00:24:08.388Z,4.35
2018-04-08T00:26:38.664Z,4.45
2018-04-08T00:29:08.041Z,4.35
2018-04-08T00:31:38.679Z,4.44
2018-04-08T00:34:07.776Z,4.31
2018-04-08T00:36:37.855Z,4.39
2018-04-08T00:39:06.889Z,4.25
2018-04-08T00:44:11.661Z,4.30
2018-04-08T00:46:40.722Z,4.33
2018-04-08T00:49:09.739Z,4.30
2018-04-08T00:51:39.721Z,4.09
2018-04-08T00:54:26.472Z,3.91
2018-04-08T00:56:55.768Z,3.72
2018-04-08T00:59:25.778Z,3.61
2018-04-08T01:01:54.885Z,3.52
2018-04-08T01:04:23.916Z,3.62
2018-04-08T01:06:53.160Z,3.57
2018-04-08T01:09:22.202Z,3.64
2018-04-08T01:11:51.251Z,3.88
2018-04-08T01:14:20.310Z,3.77
2018-04-08T01:16:49.375Z,3.88
2018-04-08T01:19:18.434Z,3.91
2018-04-08T01:21:47.490Z,3.86
2018-04-08T01:24:16.728Z,3.82
2018-04-08T01:26:45.777Z,3.79
2018-04-08T01:31:50.546Z,3.74
2018-04-08T01:34:19.734Z,3.77
2018-04-08T01:36:48.798Z,3.58
2018-04-08T01:39:18.551Z,3.43
2018-04-08T01:41:47.604Z,3.52
2018-04-08T01:44:16.647Z,3.60
2018-04-08T01:46:45.748Z,3.53
2018-04-08T01:49:14.938Z,3.44
2018-04-08T01:51:44.087Z,3.60
2018-04-08T01:56:48.824Z,3.51
2018-04-08T01:59:17.871Z,3.56
2018-04-08T02:01:46.943Z,3.41
2018-04-08T02:04:16.005Z,3.33
2018-04-08T02:06:45.083Z,3.42
2018-04-08T02:09:14.140Z,3.58
2018-04-08T02:14:19.106Z,3.49
2018-04-08T02:16:48.148Z,3.31
2018-04-08T02:19:17.215Z,3.14
2018-04-08T02:21:46.485Z,3.22
2018-04-08T02:24:19.774Z,3.29
2018-04-08T02:26:52.528Z,3.09
2018-04-08T02:29:23.712Z,3.13
2018-04-08T02:31:52.773Z,2.99
2018-04-08T02:34:21.813Z,3.04
2018-04-08T02:36:50.865Z,2.90
2018-04-08T02:39:20.020Z,2.93
2018-04-08T02:41:49.211Z,2.75
2018-04-08T02:44:18.256Z,2.79
2018-04-08T02:46:47.335Z,2.84
2018-04-08T02:49:16.460Z,2.66
2018-04-08T02:51:45.508Z,2.69
2018-04-08T02:54:14.553Z,2.62
2018-04-08T02:56:43.642Z,2.72
2018-04-08T02:59:12.807Z,2.69
2018-04-08T03:01:42.209Z,2.77
2018-04-08T03:04:11.419Z,2.69
2018-04-08T03:06:40.508Z,2.72
2018-04-08T03:09:09.640Z,2.75
2018-04-08T03:11:39.856Z,2.76
2018-04-08T03:14:08.903Z,2.77
2018-04-08T03:19:15.797Z,2.72
2018-04-08T03:21:44.954Z,2.62
2018-04-08T03:24:14.023Z,2.63
2018-04-08T03:29:18.870Z,2.68
2018-04-08T03:31:48.077Z,2.50
2018-04-08T03:34:17.139Z,2.55
2018-04-08T03:36:46.206Z,2.60
2018-04-08T03:39:15.250Z,2.51
2018-04-08T03:41:44.337Z,2.52
2018-04-08T03:44:13.424Z,2.26
2018-04-08T03:46:42.492Z,2.22
2018-04-08T03:49:11.569Z,2.07
2018-04-08T03:51:40.616Z,2.09
2018-04-08T03:54:09.783Z,2.19
2018-04-08T03:56:40.924Z,2.23
2018-04-08T03:59:09.955Z,2.10
2018-04-08T04:01:40.471Z,2.14
2018-04-08T04:04:09.528Z,2.18
2018-04-08T04:06:39.562Z,2.06
2018-04-08T04:09:11.424Z,2.11
2018-04-08T04:11:40.927Z,1.98
2018-04-08T04:14:13.344Z,2.13
2018-04-08T04:16:47.038Z,1.98
2018-04-08T04:19:34.249Z,2.04
2018-04-08T04:27:26.175Z,2.10
2018-04-08T04:32:33.177Z,1.95
2018-04-08T04:35:02.982Z,1.81
2018-04-08T04:37:36.257Z,1.86
2018-04-08T04:40:07.735Z,1.96
2018-04-08T04:42:40.916Z,1.83
2018-04-08T04:47:50.110Z,1.97
2018-04-08T04:50:19.192Z,2.06
2018-04-08T04:52:48.235Z,2.09
2018-04-08T04:55:17.281Z,1.96
2018-04-08T04:57:46.547Z,2.02
2018-04-08T05:00:15.729Z,2.16
2018-04-08T05:02:44.767Z,2.13
2018-04-08T05:05:13.856Z,2.36
2018-04-08T05:07:43.181Z,2.49
2018-04-08T05:10:12.331Z,2.57
2018-04-08T05:12:41.395Z,2.50
2018-04-08T05:15:10.788Z,2.53
2018-04-08T05:17:39.979Z,2.44
2018-04-08T05:20:09.031Z,2.52
2018-04-08T05:22:39.311Z,2.69
2018-04-08T05:25:08.684Z,2.71
2018-04-08T05:27:37.948Z,2.94
2018-04-08T05:30:06.975Z,3.13
2018-04-08T05:32:36.040Z,3.04
2018-04-08T05:35:05.075Z,3.17
2018-04-08T05:37:34.613Z,3.29
2018-04-08T05:40:03.697Z,3.26
2018-04-08T05:42:33.171Z,3.40
2018-04-08T05:45:03.627Z,3.35
2018-04-08T05:47:32.771Z,3.53
2018-04-08T05:50:02.204Z,3.61
2018-04-08T05:52:31.259Z,3.84
2018-04-08T05:55:00.299Z,3.85
2018-04-08T05:57:29.941Z,3.98
2018-04-08T05:59:58.992Z,4.02
2018-04-08T06:02:28.472Z,4.24
2018-04-08T06:04:57.516Z,4.28
2018-04-08T06:07:26.588Z,4.47
2018-04-08T06:09:55.986Z,4.52
2018-04-08T06:12:25.023Z,4.54
2018-04-08T06:14:54.403Z,4.78
2018-04-08T06:17:23.460Z,4.82
2018-04-08T06:19:52.555Z,5.08
2018-04-08T06:22:22.019Z,5.19
2018-04-08T06:27:26.863Z,5.66
2018-04-08T06:29:56.076Z,5.86
2018-04-08T06:32:25.107Z,5.89
2018-04-08T06:41:15.811Z,6.72
2018-04-08T06:43:45.492Z,6.91
2018-04-08T06:46:14.531Z,6.91
2018-04-08T06:48:43.582Z,7.02
2018-04-08T06:51:13.250Z,7.16
2018-04-08T06:53:42.510Z,7.32
2018-04-08T06:56:11.615Z,7.45
2018-04-08T06:58:40.927Z,7.55
2018-04-08T07:01:10.899Z,7.71
2018-04-08T07:03:40.889Z,7.85
2018-04-08T07:06:10.040Z,7.95
2018-04-08T07:08:40.141Z,8.03
2018-04-08T07:11:10.297Z,8.17
2018-04-08T07:13:40.012Z,8.29
2018-04-08T07:16:09.060Z,8.37
2018-04-08T07:21:14.404Z,8.80
2018-04-08T07:23:43.453Z,8.93
2018-04-08T07:26:13.409Z,9.05
2018-04-08T07:28:42.537Z,9.24
2018-04-08T07:31:12.040Z,9.47
2018-04-08T07:36:18.016Z,9.84
2018-04-08T07:38:47.064Z,9.80
2018-04-08T07:41:16.572Z,9.90
2018-04-08T07:43:45.616Z,10.04
2018-04-08T07:46:14.703Z,10.20
2018-04-08T07:48:44.115Z,10.36
2018-04-08T07:51:13.156Z,10.48
2018-04-08T07:53:42.953Z,10.69
2018-04-08T07:56:11.998Z,10.86
2018-04-08T07:58:41.663Z,10.97
2018-04-08T08:01:10.724Z,11.07
2018-04-08T08:03:41.506Z,11.40
2018-04-08T08:06:10.563Z,11.47
2018-04-08T08:08:40.403Z,11.64
2018-04-08T08:11:09.478Z,11.86
2018-04-08T08:13:39.359Z,12.13
2018-04-08T08:16:09.203Z,12.35
2018-04-08T08:18:39.114Z,12.32
2018-04-08T08:23:44.101Z,12.75
2018-04-08T08:26:13.181Z,12.83
2018-04-08T08:28:42.247Z,13.10
2018-04-08T08:31:13.529Z,13.19
2018-04-08T08:33:44.937Z,13.38
2018-04-08T08:36:14.352Z,13.60
2018-04-08T08:38:43.443Z,13.78
2018-04-08T08:41:15.291Z,14.08
2018-04-08T08:43:44.368Z,14.31
2018-04-08T08:46:13.411Z,14.58
2018-04-08T08:48:42.602Z,14.67
2018-04-08T08:51:11.680Z,14.95
2018-04-08T08:53:41.462Z,15.33
2018-04-08T08:58:46.215Z,16.41
2018-04-08T09:03:50.965Z,18.83
2018-04-08T09:06:20.553Z,20.41
2018-04-08T09:08:49.603Z,22.36
2018-04-08T09:11:19.213Z,23.94
2018-04-08T09:13:48.285Z,25.19
2018-04-08T09:16:17.385Z,26.39
2018-04-08T09:18:47.470Z,26.88
2018-04-08T09:26:53.878Z,29.42
2018-04-08T09:29:22.943Z,29.87
2018-04-08T09:31:52.039Z,28.42
2018-04-08T09:36:56.868Z,31.85
2018-04-08T09:39:26.562Z,32.87
2018-04-08T09:41:55.641Z,32.58
2018-04-08T09:44:24.747Z,33.86
2018-04-08T09:46:54.027Z,33.26
2018-04-08T09:49:23.079Z,33.58
2018-04-08T09:51:52.148Z,34.14
2018-04-08T09:54:21.322Z,33.63
2018-04-08T09:56:50.867Z,33.45
2018-04-08T09:59:19.967Z,34.19
2018-04-08T10:01:51.979Z,34.47
2018-04-08T10:04:21.288Z,35.18
2018-04-08T10:06:50.430Z,35.66
2018-04-08T10:09:19.491Z,34.78
2018-04-08T10:11:48.552Z,34.77
2018-04-08T10:14:17.818Z,35.74
2018-04-08T10:16:47.127Z,36.53
2018-04-08T10:19:16.208Z,35.58
2018-04-08T10:21:46.040Z,35.84
2018-04-08T10:24:15.101Z,36.55
2018-04-08T10:26:44.317Z,36.34
2018-04-08T10:29:13.425Z,37.20
2018-04-08T10:31:43.013Z,37.64
2018-04-08T10:34:12.082Z,37.26
2018-04-08T10:36:41.136Z,38.30
2018-04-08T10:39:11.049Z,38.43
2018-04-08T10:41:40.413Z,37.51
2018-04-08T10:44:09.460Z,38.40
2018-04-08T10:46:39.907Z,38.61
2018-04-08T10:49:09.017Z,38.90
2018-04-08T10:51:39.662Z,39.34
2018-04-08T10:54:08.660Z,37.34
2018-04-08T10:56:38.682Z,35.83
2018-04-08T11:01:43.863Z,39.51
2018-04-08T11:06:49.446Z,40.53
2018-04-08T11:09:18.504Z,38.92
2018-04-08T11:11:47.585Z,40.31
2018-04-08T11:16:52.562Z,41.06
2018-04-08T11:21:57.897Z,41.35
2018-04-08T11:24:26.947Z,41.36
2018-04-08T11:26:56.012Z,41.07
2018-04-08T11:29:25.065Z,40.75
2018-04-08T11:31:54.135Z,41.02
2018-04-08T11:34:23.735Z,40.78
2018-04-08T11:36:52.800Z,40.79
2018-04-08T11:39:22.189Z,40.95
2018-04-08T11:41:51.257Z,40.69
2018-04-08T11:44:20.327Z,40.99
2018-04-08T11:46:49.401Z,41.81
2018-04-08T11:49:18.459Z,42.86
2018-04-08T11:51:47.519Z,41.63
2018-04-08T11:54:16.571Z,43.01
2018-04-08T11:56:45.895Z,42.80
2018-04-08T11:59:15.922Z,43.03
2018-04-08T12:01:44.987Z,42.92
2018-04-08T12:04:14.046Z,42.00
2018-04-08T12:06:43.112Z,43.16
2018-04-08T12:09:12.522Z,42.46
2018-04-08T12:11:41.603Z,41.79
2018-04-08T12:14:11.559Z,42.46
2018-04-08T12:16:40.622Z,42.42
2018-04-08T12:19:09.671Z,42.54
2018-04-08T12:21:39.798Z,40.83
2018-04-08T12:24:09.068Z,41.63
2018-04-08T12:26:39.863Z,40.74
2018-04-08T12:29:09.472Z,41.77
2018-04-08T12:34:14.310Z,41.48
2018-04-08T12:36:43.766Z,41.43
2018-04-08T12:39:13.136Z,42.19
2018-04-08T12:44:18.771Z,43.97
2018-04-08T12:46:47.837Z,42.69
2018-04-08T12:49:16.888Z,42.69
2018-04-08T12:51:46.451Z,41.12
2018-04-08T12:54:15.460Z,43.51
2018-04-08T12:56:44.760Z,42.94
2018-04-08T12:59:13.843Z,43.35
2018-04-08T13:01:42.910Z,38.90
2018-04-08T13:04:12.664Z,40.85
2018-04-08T13:06:41.704Z,40.81
2018-04-08T13:09:10.940Z,41.38
2018-04-08T13:16:54.686Z,43.12
2018-04-08T13:19:24.041Z,41.11
2018-04-08T13:21:53.317Z,40.52
2018-04-08T13:24:22.378Z,40.26
2018-04-08T13:26:51.756Z,41.59
2018-04-08T13:29:20.860Z,40.46
2018-04-08T13:31:50.025Z,43.20
2018-04-08T13:34:19.327Z,42.27
2018-04-08T13:36:48.504Z,43.98
2018-04-08T13:39:17.948Z,42.54
2018-04-08T13:41:47.100Z,42.11
2018-04-08T13:44:16.154Z,40.33
2018-04-08T13:46:45.460Z,41.60
2018-04-08T13:49:14.561Z,41.85
2018-04-08T13:51:43.695Z,40.86
2018-04-08T13:54:17.311Z,42.19
2018-04-08T13:56:50.568Z,42.05
2018-04-08T13:59:22.714Z,41.44
2018-04-08T14:01:55.394Z,41.01
2018-04-08T14:04:28.385Z,41.22
2018-04-08T14:07:01.454Z,41.29
2018-04-08T14:12:10.722Z,42.87
2018-04-08T14:14:44.727Z,42.06
2018-04-08T14:17:17.022Z,41.45
2018-04-08T14:22:27.363Z,41.00
2018-04-08T14:27:40.282Z,39.75
2018-04-08T14:30:14.166Z,40.60
2018-04-08T14:32:48.137Z,39.55
2018-04-08T14:35:20.690Z,39.80
2018-04-08T14:37:53.829Z,40.35
2018-04-08T14:40:26.673Z,40.06
2018-04-08T14:43:00.269Z,40.72
2018-04-08T14:45:34.024Z,39.87
2018-04-08T14:48:06.950Z,40.15
2018-04-08T14:50:39.426Z,41.06
2018-04-08T14:53:12.155Z,40.56
2018-04-08T14:55:45.212Z,39.58
2018-04-08T14:58:18.235Z,40.03
2018-04-08T15:00:51.050Z,40.32
2018-04-08T15:03:23.456Z,40.48
2018-04-08T15:05:57.181Z,39.78
2018-04-08T15:11:05.694Z,40.33
2018-04-08T15:13:38.933Z,39.18
2018-04-08T15:16:12.327Z,39.08
2018-04-08T15:18:44.689Z,39.17
2018-04-08T15:23:53.854Z,39.03
2018-04-08T15:26:27.298Z,38.36
2018-04-08T15:28:59.807Z,37.85
2018-04-08T15:31:32.456Z,37.50
2018-04-08T15:34:05.471Z,36.90
2018-04-08T15:36:38.229Z,37.07
2018-04-08T15:39:11.107Z,37.83
2018-04-08T15:41:44.231Z,36.72
2018-04-08T15:44:18.689Z,35.87
2018-04-08T15:46:52.055Z,36.12
2018-04-08T15:49:25.278Z,36.88
2018-04-08T15:51:58.317Z,35.75
2018-04-08T15:54:31.879Z,36.20
2018-04-08T15:57:04.712Z,34.88
2018-04-08T15:59:37.947Z,35.04
2018-04-08T16:02:10.647Z,34.44
2018-04-08T16:04:44.624Z,33.95
2018-04-08T16:07:17.967Z,34.19
2018-04-08T16:12:27.524Z,30.45
2018-04-08T16:15:01.054Z,27.66
2018-04-08T16:17:33.860Z,27.88
2018-04-08T16:20:06.869Z,26.90
2018-04-08T16:25:17.075Z,26.55
2018-04-08T16:27:49.908Z,26.00
2018-04-08T16:30:23.655Z,25.33
2018-04-08T16:32:57.455Z,24.94
2018-04-08T19:12:57.843Z,15.32
2018-04-08T19:15:26.948Z,15.31
2018-04-08T19:18:01.771Z,15.10
2018-04-08T19:20:30.828Z,14.99
2018-04-08T19:22:59.971Z,14.97
2018-04-08T19:25:29.300Z,14.66
2018-04-08T19:27:58.334Z,14.67
2018-04-08T19:30:27.386Z,14.29
2018-04-08T19:33:01.344Z,13.93
2018-04-08T19:38:07.199Z,13.85
2018-04-08T19:40:36.296Z,13.67
2018-04-08T19:45:41.074Z,13.47
2018-04-08T19:48:10.214Z,13.44
2018-04-08T19:50:39.276Z,13.39
2018-04-08T19:53:08.548Z,13.07
2018-04-08T19:58:13.406Z,12.89
2018-04-08T20:00:42.621Z,12.92
2018-04-08T20:05:48.025Z,12.84
2018-04-08T20:08:18.478Z,12.54
2018-04-08T20:10:48.372Z,12.32
2018-04-08T20:13:17.452Z,12.42
2018-04-08T20:15:46.521Z,12.47
2018-04-08T20:18:16.006Z,12.45
2018-04-08T20:20:45.079Z,12.30
2018-04-08T20:23:14.137Z,12.33
2018-04-08T20:25:43.624Z,12.26
2018-04-08T20:28:12.731Z,11.92
2018-04-08T20:30:41.832Z,11.69
2018-04-08T20:33:11.652Z,11.49
2018-04-08T20:35:40.898Z,11.33
2018-04-08T20:40:46.268Z,11.40
2018-04-08T20:43:15.472Z,11.48
2018-04-08T20:45:45.521Z,11.22
2018-04-08T20:48:15.022Z,11.03
2018-04-08T20:50:44.624Z,10.93
2018-04-08T20:53:13.704Z,10.93
2018-04-08T20:55:42.994Z,10.96
2018-04-08T20:58:12.093Z,11.13
2018-04-08T21:00:42.097Z,11.15
2018-04-08T21:05:47.386Z,10.91
2018-04-08T21:08:16.482Z,11.03
2018-04-08T21:10:45.748Z,10.84
2018-04-08T21:13:14.820Z,10.70
2018-04-08T21:15:43.897Z,10.53
2018-04-08T21:18:13.058Z,10.62
2018-04-08T21:20:42.132Z,10.42
2018-04-08T21:23:11.237Z,10.26
2018-04-08T21:25:40.384Z,10.16
2018-04-08T21:28:09.523Z,10.03
2018-04-08T21:30:38.592Z,9.97
2018-04-08T21:35:43.576Z,10.13
2018-04-08T21:38:12.654Z,10.01
2018-04-08T21:40:42.240Z,9.89
2018-04-08T21:45:47.059Z,9.93
2018-04-08T21:48:17.206Z,9.81
2018-04-08T21:50:46.251Z,9.70
2018-04-08T21:53:16.550Z,9.81
2018-04-08T21:55:59.212Z,9.59
2018-04-08T22:01:33.608Z,9.46
2018-04-08T22:04:16.956Z,9.25
2018-04-08T22:06:46.746Z,9.11
2018-04-08T22:09:15.819Z,9.03
2018-04-08T22:11:44.892Z,9.17
2018-04-08T22:14:14.039Z,9.05
2018-04-08T22:16:43.101Z,8.92
2018-04-08T22:19:12.147Z,9.02
2018-04-08T22:21:45.725Z,8.86
2018-04-08T22:24:14.831Z,8.76
2018-04-08T22:26:43.868Z,8.76
2018-04-08T22:29:12.925Z,8.69
2018-04-08T22:31:42.035Z,8.67
2018-04-08T22:34:11.481Z,8.71
2018-04-08T22:36:40.558Z,8.67
2018-04-08T22:39:10.605Z,8.85
2018-04-08T22:41:39.660Z,8.82
2018-04-08T22:44:08.853Z,8.73
2018-04-08T22:46:37.915Z,8.76
2018-04-08T22:49:06.963Z,8.63
2018-04-08T22:51:36.208Z,8.62
2018-04-08T22:54:05.291Z,8.71
2018-04-08T22:56:34.336Z,8.77
2018-04-08T22:59:03.381Z,8.57
2018-04-08T23:01:32.559Z,8.44
2018-04-08T23:04:02.569Z,8.38
2018-04-08T23:09:07.288Z,8.47
2018-04-08T23:11:36.423Z,8.54
2018-04-08T23:14:05.583Z,8.43
2018-04-08T23:16:34.653Z,8.45
2018-04-08T23:19:03.705Z,8.41
2018-04-08T23:24:09.236Z,8.42
2018-04-08T23:26:38.287Z,8.48
2018-04-08T23:29:07.431Z,8.30
2018-04-08T23:31:36.483Z,8.20
2018-04-08T23:34:05.556Z,8.15
2018-04-08T23:36:34.600Z,8.29
2018-04-08T23:39:03.690Z,8.19
2018-04-08T23:41:32.744Z,8.26
2018-04-08T23:44:01.884Z,8.26
2018-04-08T23:46:30.903Z,8.08
2018-04-08T23:48:59.991Z,7.98
2018-04-08T23:51:29.288Z,7.90
2018-04-08T23:53:58.367Z,7.84
2018-04-08T23:56:27.413Z,7.86
2018-04-08T23:58:56.480Z,7.68
